Paoli, CO (80746)

6:25 AM MDT on July 23, 2016 (GMT -0600)
Far Northeast Colorado | | Change Station

Elev 3835 ft 40.71 °N, 102.38 °W | Updated 42 seconds ago

Clear
Clear
68.2 °F
Feels Like 68.2 °F
N
4.7
Wind Variable Wind from SSE

Today
High -- | Low -- °F
--% Chance of Precip.
Yesterday
High -- | Low -- °F
Precip. -- in
Pressure 29.98 in
Visibility -9999.0 miles
Clouds Clear
Dew Point 64 °F
Humidity 85%
Rainfall 0.00 in
Snow Depth Not available.
5:39 AM 8:13 PM
Waning Gibbous, 85% visible
METAR KHEQ 231215Z AUTO 28005KT CLR 22/18 A2998 RMK AO2 PWINO
Pressure 29.98 in
Visibility -9999.0 miles
Clouds Clear
Dew Point 64 °F
Humidity 85%
Rainfall 0.00 in
Snow Depth Not available.
5:39 AM 8:13 PM
Waning Gibbous, 85% visible
METAR KHEQ 231215Z AUTO 28005KT CLR 22/18 A2998 RMK AO2 PWINO

10-Day Weather Forecast

Almanac

Astronomy

Jul. 23, 2016 Rise Set
Actual Time
Civil Twilight
Nautical Twilight
Astronomical Twilight
Moon
Length of Visible Light
Length of Day
Tomorrow will be .
, % of the Moon is Illuminated

Today's Extremes

State Highs State Lows

Community

WunderPhotos

Upload Photos

1,926,813 photos uploaded!

WunderBlog® & News

Nearby

Air Quality

  Air Quality AQ Index Pollutant
Not available.

Snow Depth

Station Depth Elevation

Earthquake Activity

City Distance Mag. Time & Date
Minimum magnitude displayed is 2.5.

Coastal Water Temperatures

Place Temperature

Stations

Nearby Weather Stations

Station Location Temp. Windchill Dew Point Humidity Wind Precip. Elev Updated Type
                   

Watches & Warnings

There are currently no watches in effect.